Estación Meteorológica Peña el Pijo (Robertgarden) [ 11/17/17 23:46:58 CET ]

Fecha Hora Presion(HPa) Temp (°C) Humedad % Rocio (°C) Viento ( m/s) Direccion Lluvia 1Hora(mm) Lluvia 24H(mm) LLuvia Total(mm)
2017-Sep-28 01:02:04 1015.600 15.6 78 11.8         1457.65
2017-Sep-28 02:01:54 1016.100 14.7 79 11.1         1457.65
2017-Sep-28 03:01:33 1015.800 14.1 80 10.7         1457.65
2017-Sep-28 04:01:29 1015.600 13.1 82 10.1         1457.65
2017-Sep-28 05:03:37 1015.200 11.9 84 9.3         1457.65
2017-Sep-28 06:01:29 1015.100 11.3 84 8.7         1457.65
2017-Sep-28 07:01:56 1015.600 10.4 85 7.9         1457.65
2017-Sep-28 08:01:45 1015.800 9.8 86 7.5         1457.65
2017-Sep-28 09:01:43 1016.300 9.8 87 7.7         1457.65
2017-Sep-28 10:01:40 1016.700 14.5 87 12.4         1457.65
2017-Sep-28 11:01:53 1016.900 18.6 77 14.5         1457.65
2017-Sep-28 12:01:41 1016.400 23.4 55 13.8         1457.65
2017-Sep-28 13:01:53 1016.200 27.2 42 13.2         1457.65
2017-Sep-28 14:01:36 1015.700 26.9 38 11.3 1.3 SSW     1457.65
2017-Sep-28 15:01:40 1015.600 25.8 39 10.8         1457.65
2017-Sep-28 16:01:52 1015.000 27.1 35 10.2         1457.65
2017-Sep-28 17:01:51 1014.900 24.8 40 10.3         1457.65
2017-Sep-28 18:01:41 1014.800 22.9 46 10.6         1457.65
2017-Sep-28 19:01:45 1015.300 20.9 53 10.9         1457.65
2017-Sep-28 20:01:43 1015.500 19.2 60 11.3         1457.65
2017-Sep-28 21:01:53 1015.800 17.4 66 11.0         1457.65
2017-Sep-28 22:01:48 1016.200 16.0 69 10.4         1457.65
2017-Sep-28 23:01:48 1016.700 13.9 73 9.1         1457.65

Temperatura Máxima:27°    Temperatura Mínima:
Presión Máxima:1016.900 Hpa    Presión Mínima:1014.800 Hpa


Volver